جازان, السعودية

07:02 PM AST on وèلهبر 21, 2014 (GMT +0300)
Jazan | Change Station
CLOSE
Current Station
Airport
Location: Gizan,
Elevation: 20 ft
Nearby Weather Stations

Elev 20 ft 16.90 °N, 42.59 °E | Updated 1 hour ago

Clear
صافية
86 °F
Feels Like 97 °F
N
8
ريح متغير ريح from SSW

هذا اليوم
High -- | Low -- °F
--% Chance of Precip.
Yesterday
High -- | Low -- °F
Precip. -- في
6:16 AM 5:33 PM
الهلال الأخير, 1% visible
الضغط 29.89 في
وضوح الرؤية -9999.0 أميال
سحابات
مؤشر الحرارة 97 °F
نقطة الندى 77 °F
الرطوبة 74%
Rainfall 0.00 في
عمق الثلج Not available.
الأشعة فوق البنفسجية Not available.
Pollen Not available.
جودة الهواء Not available.
Flu Activity Not available.
METAR OEGN 211500Z 21007KT CAVOK 30/25 Q1012 NOSIG

More Conditions Fewer Conditions

الضغط 29.89 في
وضوح الرؤية -9999.0 أميال
سحابات
مؤشر الحرارة 97 °F
نقطة الندى 77 °F
الرطوبة 74%
Rainfall 0.00 في
عمق الثلج Not available.
الأشعة فوق البنفسجية Not available.
Pollen Not available.
جودة الهواء Not available.
Flu Activity Not available.
METAR OEGN 211500Z 21007KT CAVOK 30/25 Q1012 NOSIG

More Conditions Fewer Conditions

10-Day Weather Forecast

Almanac

علم الفلك

Nov. 21, 2014 Rise Set
Actual Time
Civil Twilight
Nautical Twilight
Astronomical Twilight
قمر
Length Of Visible Light
طول الیوم
Tomorrow will be .
, % of the Moon is Illuminated

Today's Extremes

Country Highs Country Lows

Community

WunderPhotos

Upload Photos

1,772,677 photos uploaded!

WunderBlogs® & News

Nearby

جودة الهواء

  جودة الهواء AQ Index Pollutant
Not available.

عمق الثلج

Station Depth Elevation

Earthquake Activity

City Distance Mag. Time & Date
Minimum magnitude displayed is 2.5.

Coastal Water Temperatures

مكان درجات الحرارة

Nearby Weather Stations